sensor_id;sensor_type;location;lat;lon;timestamp;pressure;altitude;pressure_sealevel;temperature;humidity
18858;BME280;9558;50.178;8.370;2023-02-18T00:00:53;98970.88;;;10.28;100.00
18858;BME280;9558;50.178;8.370;2023-02-18T00:03:22;98971.53;;;10.30;100.00
18858;BME280;9558;50.178;8.370;2023-02-18T00:05:48;98960.22;;;10.31;100.00
18858;BME280;9558;50.178;8.370;2023-02-18T00:08:16;98972.22;;;10.32;100.00
18858;BME280;9558;50.178;8.370;2023-02-18T00:10:42;98962.97;;;10.29;100.00
18858;BME280;9558;50.178;8.370;2023-02-18T00:13:09;98951.00;;;10.28;100.00
18858;BME280;9558;50.178;8.370;2023-02-18T00:15:36;98962.00;;;10.30;100.00
18858;BME280;9558;50.178;8.370;2023-02-18T00:18:03;98955.06;;;10.31;100.00
18858;BME280;9558;50.178;8.370;2023-02-18T00:20:30;98953.41;;;10.30;100.00
18858;BME280;9558;50.178;8.370;2023-02-18T00:22:57;98960.53;;;10.28;100.00
18858;BME280;9558;50.178;8.370;2023-02-18T00:25:25;98967.63;;;10.26;100.00
18858;BME280;9558;50.178;8.370;2023-02-18T00:27:52;98960.03;;;10.24;100.00
18858;BME280;9558;50.178;8.370;2023-02-18T00:30:18;98962.75;;;10.23;100.00
18858;BME280;9558;50.178;8.370;2023-02-18T00:32:45;98969.88;;;10.20;100.00
18858;BME280;9558;50.178;8.370;2023-02-18T00:35:11;98965.50;;;10.21;100.00
18858;BME280;9558;50.178;8.370;2023-02-18T00:37:38;98959.22;;;10.24;100.00
18858;BME280;9558;50.178;8.370;2023-02-18T00:40:06;98953.25;;;10.23;100.00
18858;BME280;9558;50.178;8.370;2023-02-18T00:42:34;98952.78;;;10.28;100.00
18858;BME280;9558;50.178;8.370;2023-02-18T00:45:00;98962.97;;;10.29;100.00
18858;BME280;9558;50.178;8.370;2023-02-18T00:47:27;98961.34;;;10.28;100.00
18858;BME280;9558;50.178;8.370;2023-02-18T00:49:53;98954.03;;;10.24;100.00
18858;BME280;9558;50.178;8.370;2023-02-18T00:52:20;98956.94;;;10.20;100.00
18858;BME280;9558;50.178;8.370;2023-02-18T00:54:46;98961.09;;;10.13;100.00
18858;BME280;9558;50.178;8.370;2023-02-18T00:57:13;98962.38;;;10.09;100.00
18858;BME280;9558;50.178;8.370;2023-02-18T00:59:41;98955.88;;;10.05;100.00
18858;BME280;9558;50.178;8.370;2023-02-18T01:02:07;98957.00;;;10.02;100.00
18858;BME280;9558;50.178;8.370;2023-02-18T01:04:34;98949.53;;;9.99;100.00
18858;BME280;9558;50.178;8.370;2023-02-18T01:07:00;98956.50;;;9.99;100.00
18858;BME280;9558;50.178;8.370;2023-02-18T01:09:27;98953.38;;;9.95;100.00
18858;BME280;9558;50.178;8.370;2023-02-18T01:11:53;98956.78;;;9.96;100.00
18858;BME280;9558;50.178;8.370;2023-02-18T01:14:20;98960.84;;;9.98;100.00
18858;BME280;9558;50.178;8.370;2023-02-18T01:16:48;98958.94;;;10.00;100.00
18858;BME280;9558;50.178;8.370;2023-02-18T01:19:14;98955.50;;;10.00;100.00
18858;BME280;9558;50.178;8.370;2023-02-18T01:21:41;98954.56;;;10.01;100.00
18858;BME280;9558;50.178;8.370;2023-02-18T01:24:07;98952.91;;;10.00;100.00
18858;BME280;9558;50.178;8.370;2023-02-18T01:26:34;98949.06;;;10.04;100.00
18858;BME280;9558;50.178;8.370;2023-02-18T01:29:00;98947.16;;;10.06;100.00
18858;BME280;9558;50.178;8.370;2023-02-18T01:31:27;98952.34;;;10.06;100.00
18858;BME280;9558;50.178;8.370;2023-02-18T01:33:55;98950.72;;;10.05;100.00
18858;BME280;9558;50.178;8.370;2023-02-18T01:36:21;98953.94;;;10.07;100.00
18858;BME280;9558;50.178;8.370;2023-02-18T01:38:48;98940.38;;;10.05;100.00
18858;BME280;9558;50.178;8.370;2023-02-18T01:41:14;98937.25;;;10.01;100.00
18858;BME280;9558;50.178;8.370;2023-02-18T01:43:41;98932.59;;;10.05;100.00
18858;BME280;9558;50.178;8.370;2023-02-18T01:46:16;98931.94;;;10.03;100.00
18858;BME280;9558;50.178;8.370;2023-02-18T01:48:46;98918.19;;;10.02;100.00
18858;BME280;9558;50.178;8.370;2023-02-18T01:51:16;98926.09;;;10.01;100.00
18858;BME280;9558;50.178;8.370;2023-02-18T01:53:48;98931.94;;;10.03;100.00
18858;BME280;9558;50.178;8.370;2023-02-18T01:56:22;98925.16;;;10.02;100.00
18858;BME280;9558;50.178;8.370;2023-02-18T01:58:50;98923.53;;;10.01;100.00
18858;BME280;9558;50.178;8.370;2023-02-18T02:01:18;98925.47;;;9.99;100.00
18858;BME280;9558;50.178;8.370;2023-02-18T02:03:44;98932.38;;;9.98;100.00
18858;BME280;9558;50.178;8.370;2023-02-18T02:06:16;98933.50;;;9.96;100.00
18858;BME280;9558;50.178;8.370;2023-02-18T02:08:46;98927.38;;;9.97;100.00
18858;BME280;9558;50.178;8.370;2023-02-18T02:11:21;98920.56;;;9.96;100.00
18858;BME280;9558;50.178;8.370;2023-02-18T02:14:00;98918.00;;;9.96;100.00
18858;BME280;9558;50.178;8.370;2023-02-18T02:16:34;98920.56;;;9.96;100.00
18858;BME280;9558;50.178;8.370;2023-02-18T02:19:22;98917.34;;;9.94;100.00
18858;BME280;9558;50.178;8.370;2023-02-18T02:24:56;98917.34;;;9.94;100.00
18858;BME280;9558;50.178;8.370;2023-02-18T02:27:25;98924.16;;;9.95;100.00
18858;BME280;9558;50.178;8.370;2023-02-18T02:30:41;98909.88;;;9.91;100.00
18858;BME280;9558;50.178;8.370;2023-02-18T02:36:38;98899.19;;;9.85;100.00
18858;BME280;9558;50.178;8.370;2023-02-18T02:39:18;98894.97;;;9.84;100.00
18858;BME280;9558;50.178;8.370;2023-02-18T02:41:51;98895.66;;;9.86;100.00
18858;BME280;9558;50.178;8.370;2023-02-18T02:44:29;98890.78;;;9.83;100.00
18858;BME280;9558;50.178;8.370;2023-02-18T02:47:01;98885.31;;;9.86;100.00
18858;BME280;9558;50.178;8.370;2023-02-18T02:49:38;98887.22;;;9.84;100.00
18858;BME280;9558;50.178;8.370;2023-02-18T02:52:15;98895.94;;;9.83;100.00
18858;BME280;9558;50.178;8.370;2023-02-18T02:54:42;98885.47;;;9.85;100.00
18858;BME280;9558;50.178;8.370;2023-02-18T02:57:43;98893.69;;;9.80;100.00
18858;BME280;9558;50.178;8.370;2023-02-18T03:00:11;98885.75;;;9.82;100.00
18858;BME280;9558;50.178;8.370;2023-02-18T03:02:48;98892.84;;;9.80;100.00
18858;BME280;9558;50.178;8.370;2023-02-18T03:05:25;98886.72;;;9.81;100.00
18858;BME280;9558;50.178;8.370;2023-02-18T03:08:08;98898.84;;;9.80;100.00
18858;BME280;9558;50.178;8.370;2023-02-18T03:10:46;98891.09;;;9.80;100.00
18858;BME280;9558;50.178;8.370;2023-02-18T03:13:20;98882.34;;;9.81;100.00
18858;BME280;9558;50.178;8.370;2023-02-18T03:15:54;98871.84;;;9.83;100.00
18858;BME280;9558;50.178;8.370;2023-02-18T03:18:26;98879.78;;;9.81;100.00
18858;BME280;9558;50.178;8.370;2023-02-18T03:20:59;98882.66;;;9.78;100.00
18858;BME280;9558;50.178;8.370;2023-02-18T03:23:32;98875.59;;;9.80;100.00
18858;BME280;9558;50.178;8.370;2023-02-18T03:26:03;98872.84;;;9.82;100.00
18858;BME280;9558;50.178;8.370;2023-02-18T03:28:30;98874.91;;;9.78;100.00
18858;BME280;9558;50.178;8.370;2023-02-18T03:31:02;98875.06;;;9.77;100.00
18858;BME280;9558;50.178;8.370;2023-02-18T03:33:35;98876.84;;;9.76;100.00
18858;BME280;9558;50.178;8.370;2023-02-18T03:36:03;98877.50;;;9.78;100.00
18858;BME280;9558;50.178;8.370;2023-02-18T03:38:32;98886.19;;;9.77;100.00
18858;BME280;9558;50.178;8.370;2023-02-18T03:41:00;98886.19;;;9.77;100.00
18858;BME280;9558;50.178;8.370;2023-02-18T03:43:28;98879.28;;;9.78;100.00
18858;BME280;9558;50.178;8.370;2023-02-18T03:45:54;98872.31;;;9.78;100.00
18858;BME280;9558;50.178;8.370;2023-02-18T03:48:21;98867.16;;;9.78;100.00
18858;BME280;9558;50.178;8.370;2023-02-18T03:50:48;98865.53;;;9.77;100.00
18858;BME280;9558;50.178;8.370;2023-02-18T03:53:14;98867.47;;;9.75;100.00
18858;BME280;9558;50.178;8.370;2023-02-18T03:55:42;98873.94;;;9.79;100.00
18858;BME280;9558;50.178;8.370;2023-02-18T03:58:09;98863.63;;;9.79;100.00
18858;BME280;9558;50.178;8.370;2023-02-18T04:00:35;98850.84;;;9.78;100.00
18858;BME280;9558;50.178;8.370;2023-02-18T04:03:02;98861.97;;;9.78;100.00
18858;BME280;9558;50.178;8.370;2023-02-18T04:05:28;98850.69;;;9.79;100.00
18858;BME280;9558;50.178;8.370;2023-02-18T04:07:55;98857.66;;;9.79;100.00
18858;BME280;9558;50.178;8.370;2023-02-18T04:10:21;98856.16;;;9.76;100.00
18858;BME280;9558;50.178;8.370;2023-02-18T04:12:50;98850.00;;;9.77;100.00
18858;BME280;9558;50.178;8.370;2023-02-18T04:15:17;98851.50;;;9.80;100.00
18858;BME280;9558;50.178;8.370;2023-02-18T04:17:43;98849.56;;;9.82;100.00
18858;BME280;9558;50.178;8.370;2023-02-18T04:20:10;98851.34;;;9.81;100.00
18858;BME280;9558;50.178;8.370;2023-02-18T04:22:37;98854.91;;;9.80;100.00
18858;BME280;9558;50.178;8.370;2023-02-18T04:25:04;98851.34;;;9.81;100.00
18858;BME280;9558;50.178;8.370;2023-02-18T04:27:31;98848.09;;;9.79;100.00
18858;BME280;9558;50.178;8.370;2023-02-18T04:29:58;98846.47;;;9.78;100.00
18858;BME280;9558;50.178;8.370;2023-02-18T04:32:25;98849.06;;;9.78;100.00
18858;BME280;9558;50.178;8.370;2023-02-18T04:34:52;98847.59;;;9.76;100.00
18858;BME280;9558;50.178;8.370;2023-02-18T04:37:18;98853.44;;;9.78;100.00
18858;BME280;9558;50.178;8.370;2023-02-18T04:39:45;98855.19;;;9.77;100.00
18858;BME280;9558;50.178;8.370;2023-02-18T04:42:11;98851.16;;;9.75;100.00
18858;BME280;9558;50.178;8.370;2023-02-18T04:44:37;98854.53;;;9.75;100.00
18858;BME280;9558;50.178;8.370;2023-02-18T04:47:06;98844.34;;;9.74;100.00
18858;BME280;9558;50.178;8.370;2023-02-18T04:49:32;98836.75;;;9.72;100.00
18858;BME280;9558;50.178;8.370;2023-02-18T04:51:59;98836.75;;;9.72;100.00
18858;BME280;9558;50.178;8.370;2023-02-18T04:54:25;98834.47;;;9.69;100.00
18858;BME280;9558;50.178;8.370;2023-02-18T04:56:52;98827.69;;;9.68;100.00
18858;BME280;9558;50.178;8.370;2023-02-18T04:59:19;98823.63;;;9.65;100.00
18858;BME280;9558;50.178;8.370;2023-02-18T05:01:45;98819.13;;;9.67;100.00
18858;BME280;9558;50.178;8.370;2023-02-18T05:04:13;98815.38;;;9.62;100.00
18858;BME280;9558;50.178;8.370;2023-02-18T05:06:41;98805.03;;;9.62;100.00
18858;BME280;9558;50.178;8.370;2023-02-18T05:09:08;98808.59;;;9.61;100.00
18858;BME280;9558;50.178;8.370;2023-02-18T05:11:34;98813.38;;;9.56;100.00
18858;BME280;9558;50.178;8.370;2023-02-18T05:14:01;98810.00;;;9.55;100.00
18858;BME280;9558;50.178;8.370;2023-02-18T05:16:29;98811.78;;;9.55;100.00
18858;BME280;9558;50.178;8.370;2023-02-18T05:18:56;98816.66;;;9.58;100.00
18858;BME280;9558;50.178;8.370;2023-02-18T05:21:23;98810.00;;;9.55;100.00
18858;BME280;9558;50.178;8.370;2023-02-18T05:23:50;98802.41;;;9.54;100.00
18858;BME280;9558;50.178;8.370;2023-02-18T05:26:16;98795.91;;;9.49;100.00
18858;BME280;9558;50.178;8.370;2023-02-18T05:28:43;98788.97;;;9.50;100.00
18858;BME280;9558;50.178;8.370;2023-02-18T05:31:10;98792.38;;;9.50;100.00
18858;BME280;9558;50.178;8.370;2023-02-18T05:33:36;98791.56;;;9.50;100.00
18858;BME280;9558;50.178;8.370;2023-02-18T05:36:03;98788.81;;;9.51;100.00
18858;BME280;9558;50.178;8.370;2023-02-18T05:38:31;98795.28;;;9.47;100.00
18858;BME280;9558;50.178;8.370;2023-02-18T05:40:58;98799.97;;;9.52;100.00
18858;BME280;9558;50.178;8.370;2023-02-18T05:43:24;98792.38;;;9.50;100.00
18858;BME280;9558;50.178;8.370;2023-02-18T05:45:51;98786.91;;;9.54;100.00
18858;BME280;9558;50.178;8.370;2023-02-18T05:48:16;98785.28;;;9.52;100.00
18858;BME280;9558;50.178;8.370;2023-02-18T05:50:43;98793.97;;;9.51;100.00
18858;BME280;9558;50.178;8.370;2023-02-18T05:53:10;98788.00;;;9.51;100.00
18858;BME280;9558;50.178;8.370;2023-02-18T05:55:38;98786.91;;;9.54;100.00
18858;BME280;9558;50.178;8.370;2023-02-18T05:58:05;98770.88;;;9.50;100.00
18858;BME280;9558;50.178;8.370;2023-02-18T06:00:31;98776.06;;;9.50;100.00
18858;BME280;9558;50.178;8.370;2023-02-18T06:02:58;98767.34;;;9.51;100.00
18858;BME280;9558;50.178;8.370;2023-02-18T06:05:24;98771.41;;;9.54;100.00
18858;BME280;9558;50.178;8.370;2023-02-18T06:07:51;98772.34;;;9.52;100.00
18858;BME280;9558;50.178;8.370;2023-02-18T06:10:17;98775.78;;;9.53;100.00
18858;BME280;9558;50.178;8.370;2023-02-18T06:12:45;98763.50;;;9.55;100.00
18858;BME280;9558;50.178;8.370;2023-02-18T06:15:12;98764.59;;;9.52;100.00
18858;BME280;9558;50.178;8.370;2023-02-18T06:17:38;98763.81;;;9.52;100.00
18858;BME280;9558;50.178;8.370;2023-02-18T06:20:06;98756.22;;;9.50;100.00
18858;BME280;9558;50.178;8.370;2023-02-18T06:22:32;98759.44;;;9.52;100.00
18858;BME280;9558;50.178;8.370;2023-02-18T06:24:59;98766.22;;;9.54;100.00
18858;BME280;9558;50.178;8.370;2023-02-18T06:27:25;98758.16;;;9.57;100.00
18858;BME280;9558;50.178;8.370;2023-02-18T06:29:53;98765.13;;;9.56;100.00
18858;BME280;9558;50.178;8.370;2023-02-18T06:32:20;98768.97;;;9.52;100.00
18858;BME280;9558;50.178;8.370;2023-02-18T06:34:46;98788.53;;;9.55;100.00
18858;BME280;9558;50.178;8.370;2023-02-18T06:37:13;98776.25;;;9.57;100.00
18858;BME280;9558;50.178;8.370;2023-02-18T06:39:39;98782.38;;;9.56;100.00
18858;BME280;9558;50.178;8.370;2023-02-18T06:42:06;98789.03;;;9.58;100.00
18858;BME280;9558;50.178;8.370;2023-02-18T06:44:32;98780.09;;;9.52;100.00
18858;BME280;9558;50.178;8.370;2023-02-18T06:47:00;98781.72;;;9.54;100.00
18858;BME280;9558;50.178;8.370;2023-02-18T06:49:27;98783.78;;;9.50;100.00
18858;BME280;9558;50.178;8.370;2023-02-18T06:51:54;98771.41;;;9.54;100.00
18858;BME280;9558;50.178;8.370;2023-02-18T06:54:21;98782.84;;;9.51;100.00
18858;BME280;9558;50.178;8.370;2023-02-18T06:56:49;98771.41;;;9.54;100.00
18858;BME280;9558;50.178;8.370;2023-02-18T06:59:15;98778.47;;;9.51;100.00
18858;BME280;9558;50.178;8.370;2023-02-18T07:01:42;98778.47;;;9.51;100.00
18858;BME280;9558;50.178;8.370;2023-02-18T07:04:10;98768.34;;;9.58;100.00
18858;BME280;9558;50.178;8.370;2023-02-18T07:06:36;98766.72;;;9.57;100.00
18858;BME280;9558;50.178;8.370;2023-02-18T07:09:03;98763.97;;;9.59;100.00
18858;BME280;9558;50.178;8.370;2023-02-18T07:11:30;98766.22;;;9.54;100.00
18858;BME280;9558;50.178;8.370;2023-02-18T07:13:56;98762.69;;;9.55;100.00
18858;BME280;9558;50.178;8.370;2023-02-18T07:16:23;98763.81;;;9.52;100.00
18858;BME280;9558;50.178;8.370;2023-02-18T07:18:49;98762.53;;;9.56;100.00
18858;BME280;9558;50.178;8.370;2023-02-18T07:21:17;98762.38;;;9.58;100.00
18858;BME280;9558;50.178;8.370;2023-02-18T07:23:44;98767.53;;;9.58;100.00
18858;BME280;9558;50.178;8.370;2023-02-18T07:26:11;98773.03;;;9.55;100.00
18858;BME280;9558;50.178;8.370;2023-02-18T07:28:39;98770.78;;;9.60;100.00
18858;BME280;9558;50.178;8.370;2023-02-18T07:31:07;98775.94;;;9.60;100.00
18858;BME280;9558;50.178;8.370;2023-02-18T07:33:33;98769.66;;;9.62;100.00
18858;BME280;9558;50.178;8.370;2023-02-18T07:36:00;98780.00;;;9.62;100.00
18858;BME280;9558;50.178;8.370;2023-02-18T07:38:29;98768.88;;;9.62;100.00
18858;BME280;9558;50.178;8.370;2023-02-18T07:40:56;98756.28;;;9.67;100.00
18858;BME280;9558;50.178;8.370;2023-02-18T07:43:23;98761.13;;;9.70;100.00
18858;BME280;9558;50.178;8.370;2023-02-18T07:45:49;98760.47;;;9.68;100.00
18858;BME280;9558;50.178;8.370;2023-02-18T07:48:16;98768.72;;;9.72;100.00
18858;BME280;9558;50.178;8.370;2023-02-18T07:50:44;98766.28;;;9.70;100.00
18858;BME280;9558;50.178;8.370;2023-02-18T07:53:14;98770.03;;;9.76;100.00
18858;BME280;9558;50.178;8.370;2023-02-18T07:55:42;98756.16;;;9.77;100.00
18858;BME280;9558;50.178;8.370;2023-02-18T07:58:15;98763.75;;;9.78;100.00
18858;BME280;9558;50.178;8.370;2023-02-18T08:00:41;98741.97;;;9.81;100.00
18858;BME280;9558;50.178;8.370;2023-02-18T08:03:08;98734.53;;;9.78;100.00
18858;BME280;9558;50.178;8.370;2023-02-18T08:05:34;98748.25;;;9.78;100.00
18858;BME280;9558;50.178;8.370;2023-02-18T08:08:01;98741.97;;;9.81;100.00
18858;BME280;9558;50.178;8.370;2023-02-18T08:10:28;98752.78;;;9.76;100.00
18858;BME280;9558;50.178;8.370;2023-02-18T08:12:56;98751.16;;;9.75;100.00
18858;BME280;9558;50.178;8.370;2023-02-18T08:15:22;98747.13;;;9.81;100.00
18858;BME280;9558;50.178;8.370;2023-02-18T08:17:49;98752.63;;;9.78;100.00
18858;BME280;9558;50.178;8.370;2023-02-18T08:20:15;98767.50;;;9.84;100.00
18858;BME280;9558;50.178;8.370;2023-02-18T08:22:42;98763.78;;;9.86;100.00
18858;BME280;9558;50.178;8.370;2023-02-18T08:25:08;98773.19;;;9.88;100.00
18858;BME280;9558;50.178;8.370;2023-02-18T08:27:35;98779.00;;;9.90;100.00
18858;BME280;9558;50.178;8.370;2023-02-18T08:30:04;98774.50;;;9.92;100.00
18858;BME280;9558;50.178;8.370;2023-02-18T08:32:30;98784.84;;;9.92;100.00
18858;BME280;9558;50.178;8.370;2023-02-18T08:34:57;98780.47;;;9.92;100.00
18858;BME280;9558;50.178;8.370;2023-02-18T08:37:23;98791.28;;;9.96;100.00
18858;BME280;9558;50.178;8.370;2023-02-18T08:39:50;98780.63;;;9.91;100.00
18858;BME280;9558;50.178;8.370;2023-02-18T08:42:17;98790.00;;;9.92;100.00
18858;BME280;9558;50.178;8.370;2023-02-18T08:44:44;98789.50;;;9.88;100.00
18858;BME280;9558;50.178;8.370;2023-02-18T08:47:12;98790.50;;;9.95;100.00
18858;BME280;9558;50.178;8.370;2023-02-18T08:49:38;98791.28;;;9.96;100.00
18858;BME280;9558;50.178;8.370;2023-02-18T08:52:05;98785.31;;;9.95;100.00
18858;BME280;9558;50.178;8.370;2023-02-18T08:54:31;98785.47;;;9.94;100.00
18858;BME280;9558;50.178;8.370;2023-02-18T08:56:58;98790.50;;;9.95;100.00
18858;BME280;9558;50.178;8.370;2023-02-18T08:59:25;98788.06;;;9.94;100.00
18858;BME280;9558;50.178;8.370;2023-02-18T09:01:51;98781.94;;;9.95;100.00
18858;BME280;9558;50.178;8.370;2023-02-18T09:04:19;98778.06;;;9.99;100.00
18858;BME280;9558;50.178;8.370;2023-02-18T09:06:46;98788.56;;;9.97;99.64
18858;BME280;9558;50.178;8.370;2023-02-18T09:09:14;98779.84;;;9.98;100.00
18858;BME280;9558;50.178;8.370;2023-02-18T09:11:41;98780.66;;;9.99;100.00
18858;BME280;9558;50.178;8.370;2023-02-18T09:14:08;98776.44;;;9.98;100.00
18858;BME280;9558;50.178;8.370;2023-02-18T09:16:35;98771.91;;;10.00;100.00
18858;BME280;9558;50.178;8.370;2023-02-18T09:19:03;98778.06;;;9.99;100.00
18858;BME280;9558;50.178;8.370;2023-02-18T09:21:31;98787.94;;;10.03;100.00
18858;BME280;9558;50.178;8.370;2023-02-18T09:23:57;98775.16;;;10.02;100.00
18858;BME280;9558;50.178;8.370;2023-02-18T09:26:25;98771.59;;;10.03;100.00
18858;BME280;9558;50.178;8.370;2023-02-18T09:28:53;98771.59;;;10.03;100.00
18858;BME280;9558;50.178;8.370;2023-02-18T09:31:22;98767.09;;;10.05;100.00
18858;BME280;9558;50.178;8.370;2023-02-18T09:33:52;98778.75;;;10.09;100.00
18858;BME280;9558;50.178;8.370;2023-02-18T09:36:19;98771.31;;;10.06;100.00
18858;BME280;9558;50.178;8.370;2023-02-18T09:38:47;98773.56;;;10.09;100.00
18858;BME280;9558;50.178;8.370;2023-02-18T09:41:23;98771.00;;;10.09;100.00
18858;BME280;9558;50.178;8.370;2023-02-18T09:43:54;98780.66;;;10.07;99.54
18858;BME280;9558;50.178;8.370;2023-02-18T09:46:23;98790.56;;;10.12;100.00
18858;BME280;9558;50.178;8.370;2023-02-18T09:48:51;98787.31;;;10.10;99.68
18858;BME280;9558;50.178;8.370;2023-02-18T09:51:19;98779.38;;;10.11;100.00
18858;BME280;9558;50.178;8.370;2023-02-18T09:53:46;98786.84;;;10.14;100.00
18858;BME280;9558;50.178;8.370;2023-02-18T09:56:25;98785.69;;;10.09;99.28
18858;BME280;9558;50.178;8.370;2023-02-18T09:58:52;98790.25;;;10.15;100.00
18858;BME280;9558;50.178;8.370;2023-02-18T10:01:24;98787.81;;;10.13;99.74
18858;BME280;9558;50.178;8.370;2023-02-18T10:03:54;98789.25;;;10.16;100.00
18858;BME280;9558;50.178;8.370;2023-02-18T10:06:26;98793.00;;;10.13;99.95
18858;BME280;9558;50.178;8.370;2023-02-18T10:08:59;98773.59;;;10.17;99.67
18858;BME280;9558;50.178;8.370;2023-02-18T10:11:29;98773.09;;;10.14;96.94
18858;BME280;9558;50.178;8.370;2023-02-18T10:13:57;98764.38;;;10.15;99.07
18858;BME280;9558;50.178;8.370;2023-02-18T10:16:27;98771.66;;;10.19;98.51
18858;BME280;9558;50.178;8.370;2023-02-18T10:18:55;98765.84;;;10.17;97.05
18858;BME280;9558;50.178;8.370;2023-02-18T10:21:24;98764.69;;;10.20;96.23
18858;BME280;9558;50.178;8.370;2023-02-18T10:23:57;98766.50;;;10.19;95.60
18858;BME280;9558;50.178;8.370;2023-02-18T10:26:25;98765.22;;;10.24;95.49
18858;BME280;9558;50.178;8.370;2023-02-18T10:28:52;98772.97;;;10.24;96.30
18858;BME280;9558;50.178;8.370;2023-02-18T10:31:24;98772.66;;;10.27;97.42
18858;BME280;9558;50.178;8.370;2023-02-18T10:33:58;98774.59;;;10.25;97.09
18858;BME280;9558;50.178;8.370;2023-02-18T10:36:34;98762.31;;;10.27;97.37
18858;BME280;9558;50.178;8.370;2023-02-18T10:39:13;98767.47;;;10.27;97.01
18858;BME280;9558;50.178;8.370;2023-02-18T10:41:53;98759.38;;;10.21;96.40
18858;BME280;9558;50.178;8.370;2023-02-18T10:44:29;98761.63;;;10.16;97.33
18858;BME280;9558;50.178;8.370;2023-02-18T10:47:05;98761.16;;;10.21;97.83
18858;BME280;9558;50.178;8.370;2023-02-18T10:49:53;98764.84;;;10.18;98.55
18858;BME280;9558;50.178;8.370;2023-02-18T10:52:21;98770.03;;;10.18;97.84
18858;BME280;9558;50.178;8.370;2023-02-18T10:54:52;98765.69;;;10.19;98.41
18858;BME280;9558;50.178;8.370;2023-02-18T10:57:21;98767.28;;;10.20;98.43
18858;BME280;9558;50.178;8.370;2023-02-18T10:59:55;98762.94;;;10.20;99.02
18858;BME280;9558;50.178;8.370;2023-02-18T11:02:24;98757.78;;;10.20;98.88
18858;BME280;9558;50.178;8.370;2023-02-18T11:04:54;98745.94;;;10.18;98.75
18858;BME280;9558;50.178;8.370;2023-02-18T11:07:25;98746.59;;;10.20;99.10
18858;BME280;9558;50.178;8.370;2023-02-18T11:09:57;98753.91;;;10.25;99.52
18858;BME280;9558;50.178;8.370;2023-02-18T11:12:26;98740.97;;;10.25;98.51
18858;BME280;9558;50.178;8.370;2023-02-18T11:15:05;98740.31;;;10.23;96.96
18858;BME280;9558;50.178;8.370;2023-02-18T11:17:34;98742.25;;;10.20;97.62
18858;BME280;9558;50.178;8.370;2023-02-18T11:20:20;98738.69;;;10.21;96.90
18858;BME280;9558;50.178;8.370;2023-02-18T11:22:47;98736.75;;;10.24;96.65
18858;BME280;9558;50.178;8.370;2023-02-18T11:25:19;98729.63;;;10.17;94.37
18858;BME280;9558;50.178;8.370;2023-02-18T11:27:49;98727.19;;;10.24;96.20
18858;BME280;9558;50.178;8.370;2023-02-18T11:30:20;98723.66;;;10.25;96.33
18858;BME280;9558;50.178;8.370;2023-02-18T11:32:49;98715.75;;;10.27;95.94
18858;BME280;9558;50.178;8.370;2023-02-18T11:35:18;98712.19;;;10.28;96.22
18858;BME280;9558;50.178;8.370;2023-02-18T11:37:45;98715.91;;;10.25;96.02
18858;BME280;9558;50.178;8.370;2023-02-18T11:40:21;98717.97;;;10.21;92.45
18858;BME280;9558;50.178;8.370;2023-02-18T11:42:48;98712.16;;;10.19;93.51
18858;BME280;9558;50.178;8.370;2023-02-18T11:45:26;98709.06;;;10.16;93.28
18858;BME280;9558;50.178;8.370;2023-02-18T11:47:58;98691.47;;;10.19;94.48
18858;BME280;9558;50.178;8.370;2023-02-18T11:50:30;98688.91;;;10.19;94.63
18858;BME280;9558;50.178;8.370;2023-02-18T11:52:57;98685.34;;;10.20;93.95
18858;BME280;9558;50.178;8.370;2023-02-18T11:55:26;98688.56;;;10.23;94.66
18858;BME280;9558;50.178;8.370;2023-02-18T11:57:57;98678.22;;;10.23;94.58
18858;BME280;9558;50.178;8.370;2023-02-18T12:00:35;98664.78;;;10.27;94.42
18858;BME280;9558;50.178;8.370;2023-02-18T12:03:07;98666.25;;;10.30;94.78
18858;BME280;9558;50.178;8.370;2023-02-18T12:05:39;98674.03;;;10.30;93.78
18858;BME280;9558;50.178;8.370;2023-02-18T12:08:12;98664.19;;;10.33;94.41
18858;BME280;9558;50.178;8.370;2023-02-18T12:10:42;98667.09;;;10.38;94.63
18858;BME280;9558;50.178;8.370;2023-02-18T12:13:21;98672.94;;;10.41;94.56
18858;BME280;9558;50.178;8.370;2023-02-18T12:15:54;98657.59;;;10.39;93.95
18858;BME280;9558;50.178;8.370;2023-02-18T12:18:41;98648.53;;;10.43;94.92
18858;BME280;9558;50.178;8.370;2023-02-18T12:21:17;98646.72;;;10.44;93.87
18858;BME280;9558;50.178;8.370;2023-02-18T12:23:56;98654.34;;;10.45;95.19
18858;BME280;9558;50.178;8.370;2023-02-18T12:26:28;98655.47;;;10.51;93.63
18858;BME280;9558;50.178;8.370;2023-02-18T12:29:12;98663.06;;;10.52;93.76
18858;BME280;9558;50.178;8.370;2023-02-18T12:32:04;98656.75;;;10.55;93.97
18858;BME280;9558;50.178;8.370;2023-02-18T12:34:43;98661.59;;;10.58;94.77
18858;BME280;9558;50.178;8.370;2023-02-18T12:37:31;98663.06;;;10.61;94.28
18858;BME280;9558;50.178;8.370;2023-02-18T12:40:08;98659.34;;;10.63;94.49
18858;BME280;9558;50.178;8.370;2023-02-18T12:42:53;98663.69;;;10.63;94.42
18858;BME280;9558;50.178;8.370;2023-02-18T12:45:44;98669.53;;;10.65;95.65
18858;BME280;9558;50.178;8.370;2023-02-18T12:48:27;98665.31;;;10.64;97.42
18858;BME280;9558;50.178;8.370;2023-02-18T12:51:07;98668.41;;;10.59;99.88
18858;BME280;9558;50.178;8.370;2023-02-18T12:53:48;98671.16;;;10.58;100.00
18858;BME280;9558;50.178;8.370;2023-02-18T12:56:44;98658.69;;;10.53;100.00
18858;BME280;9558;50.178;8.370;2023-02-18T12:59:25;98664.03;;;10.51;100.00
18858;BME280;9558;50.178;8.370;2023-02-18T13:02:05;98674.72;;;10.48;100.00
18858;BME280;9558;50.178;8.370;2023-02-18T13:04:45;98672.44;;;10.45;100.00
18858;BME280;9558;50.178;8.370;2023-02-18T13:07:36;98668.22;;;10.44;100.00
18858;BME280;9558;50.178;8.370;2023-02-18T13:10:34;98667.28;;;10.45;100.00
18858;BME280;9558;50.178;8.370;2023-02-18T13:13:09;98676.00;;;10.44;100.00
18858;BME280;9558;50.178;8.370;2023-02-18T13:15:41;98687.31;;;10.51;100.00
18858;BME280;9558;50.178;8.370;2023-02-18T13:18:11;98683.44;;;10.55;100.00
18858;BME280;9558;50.178;8.370;2023-02-18T13:20:42;98679.41;;;10.61;100.00
18858;BME280;9558;50.178;8.370;2023-02-18T13:23:15;98671.97;;;10.66;100.00
18858;BME280;9558;50.178;8.370;2023-02-18T13:25:45;98662.75;;;10.72;100.00
18858;BME280;9558;50.178;8.370;2023-02-18T13:28:19;98666.59;;;10.84;100.00